createdAt,value
2022-09-09T00:02:29.235Z,95614.56
2022-09-09T00:05:28.513Z,95610.97
2022-09-09T00:08:20.826Z,95611.34
2022-09-09T00:11:07.643Z,95619.22
2022-09-09T00:13:55.965Z,95610.56
2022-09-09T00:16:46.575Z,95606.59
2022-09-09T00:19:52.744Z,95602.63
2022-09-09T00:22:42.576Z,95603.41
2022-09-09T00:25:34.334Z,95606.88
2022-09-09T00:28:23.598Z,95603.28
2022-09-09T00:31:15.011Z,95603.19
2022-09-09T00:34:24.700Z,95608.63
2022-09-09T00:37:10.926Z,95618.44
2022-09-09T00:40:01.235Z,95625.84
2022-09-09T00:42:48.044Z,95626.56
2022-09-09T00:45:59.091Z,95619.41
2022-09-09T00:49:16.747Z,95616.97
2022-09-09T00:52:24.111Z,95611.47
2022-09-09T00:55:35.472Z,95614.38
2022-09-09T00:58:29.429Z,95610.47
2022-09-09T01:01:15.732Z,95615.97
2022-09-09T01:04:02.142Z,95611.25
2022-09-09T01:06:53.221Z,95600.56
2022-09-09T01:09:57.801Z,95621.38
2022-09-09T01:12:45.053Z,95605.63
2022-09-09T01:15:36.915Z,95609.16
2022-09-09T01:18:26.184Z,95619.34
2022-09-09T01:21:42.795Z,95632.97
2022-09-09T01:24:42.720Z,95627.41
2022-09-09T01:27:37.117Z,95625.00
2022-09-09T01:30:23.706Z,95623.78
2022-09-09T01:33:16.062Z,95622.19
2022-09-09T01:36:07.764Z,95618.66
2022-09-09T01:39:02.012Z,95609.97
2022-09-09T01:41:47.863Z,95611.22
2022-09-09T01:44:37.682Z,95615.56
2022-09-09T01:47:24.100Z,95611.50
2022-09-09T01:50:42.612Z,95608.78
2022-09-09T01:53:29.078Z,95617.75
2022-09-09T01:56:52.869Z,95615.31
2022-09-09T02:00:02.022Z,95609.28
2022-09-09T02:03:07.644Z,95611.91
2022-09-09T02:06:16.903Z,95613.50
2022-09-09T02:09:06.568Z,95608.00
2022-09-09T02:12:05.737Z,95610.31
2022-09-09T02:15:15.778Z,95619.00
2022-09-09T02:18:09.712Z,95614.66
2022-09-09T02:20:58.628Z,95616.66
2022-09-09T02:23:45.694Z,95611.16
2022-09-09T02:26:34.273Z,95596.91
2022-09-09T02:29:29.462Z,95600.06
2022-09-09T02:32:21.382Z,95598.50
2022-09-09T02:35:14.397Z,95602.38
2022-09-09T02:38:05.360Z,95592.84
2022-09-09T02:40:52.883Z,95598.34
2022-09-09T02:43:39.134Z,95592.16
2022-09-09T02:47:03.956Z,95601.38
2022-09-09T02:50:14.051Z,95602.16
2022-09-09T02:53:13.371Z,95606.13
2022-09-09T02:56:05.975Z,95614.81
2022-09-09T02:58:55.494Z,95619.16
2022-09-09T03:01:41.924Z,95612.78
2022-09-09T03:04:30.067Z,95621.81
2022-09-09T03:07:18.121Z,95630.41
2022-09-09T03:10:05.574Z,95626.81
2022-09-09T03:12:51.660Z,95623.31
2022-09-09T03:15:39.157Z,95615.09
2022-09-09T03:18:27.157Z,95606.03
2022-09-09T03:21:13.879Z,95604.44
2022-09-09T03:24:01.223Z,95608.44
2022-09-09T03:26:48.014Z,95602.84
2022-09-09T03:29:36.553Z,95601.25
2022-09-09T03:32:27.194Z,95590.28
2022-09-09T03:35:16.853Z,95583.22
2022-09-09T03:38:03.166Z,95581.63
2022-09-09T03:40:58.500Z,95571.75
2022-09-09T03:43:45.699Z,95563.47
2022-09-09T03:46:32.361Z,95565.06
2022-09-09T03:49:21.312Z,95579.19
2022-09-09T03:52:07.722Z,95591.19
2022-09-09T03:54:54.497Z,95594.22
2022-09-09T03:57:40.727Z,95601.66
2022-09-09T04:00:30.139Z,95594.66
2022-09-09T04:03:16.889Z,95586.00
2022-09-09T04:06:04.749Z,95602.16
2022-09-09T04:08:53.302Z,95591.19
2022-09-09T04:11:39.787Z,95597.16
2022-09-09T04:14:29.844Z,95571.16
2022-09-09T04:17:16.650Z,95587.00
2022-09-09T04:20:03.240Z,95590.16
2022-09-09T04:22:52.284Z,95586.19
2022-09-09T04:25:38.992Z,95599.56
2022-09-09T04:28:27.156Z,95599.56
2022-09-09T04:31:33.959Z,95610.81
2022-09-09T04:34:21.167Z,95616.72
2022-09-09T04:37:07.149Z,95608.78
2022-09-09T04:39:53.538Z,95599.28
2022-09-09T04:42:40.500Z,95596.09
2022-09-09T04:45:27.337Z,95600.88
2022-09-09T04:48:13.564Z,95600.88
2022-09-09T04:51:04.953Z,95593.00
2022-09-09T04:53:52.386Z,95600.88
2022-09-09T04:56:38.730Z,95608.78
2022-09-09T04:59:24.645Z,95615.06
2022-09-09T05:02:14.500Z,95622.22
2022-09-09T05:05:01.145Z,95614.34
2022-09-09T05:07:48.202Z,95614.06
2022-09-09T05:10:35.435Z,95625.50
2022-09-09T05:13:21.912Z,95638.06
2022-09-09T05:16:07.919Z,95646.59
2022-09-09T05:18:53.947Z,95651.22
2022-09-09T05:21:40.033Z,95654.69
2022-09-09T05:24:25.933Z,95653.53
2022-09-09T05:27:14.408Z,95666.88
2022-09-09T05:30:00.678Z,95672.44
2022-09-09T05:32:47.568Z,95673.28
2022-09-09T05:35:34.548Z,95682.41
2022-09-09T05:38:20.988Z,95689.84
2022-09-09T05:41:07.289Z,95707.94
2022-09-09T05:43:53.250Z,95716.59
2022-09-09T05:46:39.743Z,95724.34
2022-09-09T05:49:26.485Z,95732.25
2022-09-09T05:52:12.321Z,95738.09
2022-09-09T05:55:00.285Z,95738.09
2022-09-09T05:57:50.294Z,95730.63
2022-09-09T06:00:36.426Z,95716.38
2022-09-09T06:03:24.592Z,95713.19
2022-09-09T06:06:16.270Z,95718.78
2022-09-09T06:09:01.962Z,95718.34
2022-09-09T06:11:55.313Z,95721.06
2022-09-09T06:14:46.241Z,95711.69
2022-09-09T06:17:33.634Z,95701.88
2022-09-09T06:20:19.210Z,95706.13
2022-09-09T06:23:05.421Z,95714.75
2022-09-09T06:25:52.106Z,95696.69
2022-09-09T06:28:39.235Z,95683.25
2022-09-09T06:31:30.016Z,95679.38
2022-09-09T06:34:19.535Z,95696.97
2022-09-09T06:37:09.611Z,95730.59
2022-09-09T06:40:00.518Z,95745.84
2022-09-09T06:42:46.754Z,95765.75
2022-09-09T06:46:00.967Z,95771.44
2022-09-09T06:48:47.486Z,95771.81
2022-09-09T06:51:37.477Z,95782.69
2022-09-09T06:54:26.392Z,95802.56
2022-09-09T06:57:34.032Z,95803.38
2022-09-09T07:00:20.383Z,95784.47
2022-09-09T07:03:07.137Z,95779.09
2022-09-09T07:06:00.219Z,95766.94
2022-09-09T07:08:56.640Z,95772.50
2022-09-09T07:11:50.260Z,95805.84
2022-09-09T07:14:56.804Z,95818.16
2022-09-09T07:17:42.957Z,95805.16
2022-09-09T07:20:28.878Z,95804.03
2022-09-09T07:23:14.803Z,95792.25
2022-09-09T07:26:00.567Z,95774.22
2022-09-09T07:28:48.199Z,95773.94
2022-09-09T07:31:36.792Z,95760.31
2022-09-09T07:34:25.595Z,95759.59
2022-09-09T07:37:14.710Z,95761.28
2022-09-09T07:40:05.576Z,95765.66
2022-09-09T07:42:51.782Z,95768.34
2022-09-09T07:45:38.067Z,95783.78
2022-09-09T07:48:24.758Z,95801.72
2022-09-09T07:51:13.304Z,95799.78
2022-09-09T07:54:02.957Z,95803.50
2022-09-09T07:56:51.758Z,95795.22
2022-09-09T07:59:39.200Z,95810.56
2022-09-09T08:02:26.641Z,95815.66
2022-09-09T08:05:12.524Z,95841.66
2022-09-09T08:08:00.180Z,95846.94
2022-09-09T08:10:46.217Z,95848.56
2022-09-09T08:13:32.580Z,95855.22
2022-09-09T08:16:25.113Z,95875.97
2022-09-09T08:19:11.336Z,95871.09
2022-09-09T08:21:58.548Z,95877.25
2022-09-09T08:24:44.381Z,95880.34
2022-09-09T08:27:30.273Z,95868.94
2022-09-09T08:30:17.506Z,95825.44
2022-09-09T08:33:03.333Z,95816.56
2022-09-09T08:35:53.891Z,95825.56
2022-09-09T08:38:39.994Z,95829.75
2022-09-09T08:41:53.452Z,95826.53
2022-09-09T08:45:25.792Z,95796.63
2022-09-09T08:48:42.733Z,95806.88
2022-09-09T08:51:31.337Z,95812.34
2022-09-09T08:54:30.164Z,95802.09
2022-09-09T08:57:27.903Z,95776.94
2022-09-09T09:00:14.907Z,95754.78
2022-09-09T09:03:17.120Z,95744.75
2022-09-09T09:06:03.435Z,95760.53
2022-09-09T09:09:13.680Z,95760.31
2022-09-09T09:12:04.497Z,95747.78
2022-09-09T09:14:59.837Z,95762.59
2022-09-09T09:17:46.061Z,95790.16
2022-09-09T09:21:05.300Z,95787.44
2022-09-09T09:24:01.963Z,95796.09
2022-09-09T09:26:51.221Z,95796.19
2022-09-09T09:30:03.173Z,95785.38
2022-09-09T09:33:17.645Z,95790.84
2022-09-09T09:36:06.159Z,95794.00
2022-09-09T09:42:15.052Z,95786.97
2022-09-09T09:45:28.255Z,95795.59
2022-09-09T09:48:15.009Z,95787.06
2022-09-09T09:51:11.670Z,95787.19
2022-09-09T09:54:29.092Z,95782.38
2022-09-09T09:57:19.724Z,95779.19
2022-09-09T10:00:22.267Z,95774.44
2022-09-09T10:03:30.915Z,95768.19
2022-09-09T10:06:18.205Z,95765.78
2022-09-09T10:09:08.733Z,95752.56
2022-09-09T10:11:57.621Z,95752.56
2022-09-09T10:15:02.287Z,95760.78
2022-09-09T10:18:05.090Z,95756.19
2022-09-09T10:21:19.135Z,95747.31
2022-09-09T10:24:25.364Z,95752.53
2022-09-09T10:27:41.442Z,95747.94
2022-09-09T10:30:44.249Z,95749.34
2022-09-09T10:33:54.670Z,95765.41
2022-09-09T10:36:47.695Z,95765.41
2022-09-09T10:39:43.099Z,95764.84
2022-09-09T10:42:32.346Z,95774.66
2022-09-09T10:45:46.564Z,95766.00
2022-09-09T10:48:36.251Z,95759.84
2022-09-09T10:51:22.003Z,95755.28
2022-09-09T10:54:30.243Z,95750.69
2022-09-09T10:57:29.707Z,95748.41
2022-09-09T11:00:24.349Z,95747.72
2022-09-09T11:03:21.240Z,95734.91
2022-09-09T11:06:16.059Z,95733.09
2022-09-09T11:09:03.850Z,95718.72
2022-09-09T11:11:55.349Z,95731.66
2022-09-09T11:15:17.129Z,95732.13
2022-09-09T11:18:05.724Z,95723.22
2022-09-09T11:20:56.882Z,95722.09
2022-09-09T11:24:00.469Z,95725.63
2022-09-09T11:26:51.341Z,95722.53
2022-09-09T11:29:38.198Z,95714.75
2022-09-09T11:32:53.515Z,95723.41
2022-09-09T11:35:48.073Z,95732.06
2022-09-09T11:38:39.394Z,95730.47
2022-09-09T11:41:35.274Z,95714.06
2022-09-09T11:44:31.419Z,95712.47
2022-09-09T11:47:37.926Z,95712.22
2022-09-09T11:50:33.766Z,95708.06
2022-09-09T11:53:23.390Z,95712.19
2022-09-09T11:56:17.183Z,95720.09
2022-09-09T11:59:04.704Z,95712.78
2022-09-09T12:01:58.121Z,95713.25
2022-09-09T12:05:07.595Z,95705.38
2022-09-09T12:07:59.152Z,95706.63
2022-09-09T12:10:58.348Z,95695.69
2022-09-09T12:13:54.476Z,95693.81
2022-09-09T12:16:41.189Z,95698.56
2022-09-09T12:19:27.340Z,95686.13
2022-09-09T12:22:32.139Z,95679.59
2022-09-09T12:25:36.601Z,95673.84
2022-09-09T12:28:41.832Z,95671.72
2022-09-09T12:31:37.326Z,95654.72
2022-09-09T12:34:38.161Z,95652.59
2022-09-09T12:37:37.586Z,95635.19
2022-09-09T12:40:36.503Z,95627.81
2022-09-09T12:43:23.983Z,95640.63
2022-09-09T12:46:22.429Z,95633.34
2022-09-09T12:49:37.540Z,95625.28
2022-09-09T12:52:35.665Z,95624.63
2022-09-09T12:55:27.102Z,95618.41
2022-09-09T12:58:14.683Z,95618.84
2022-09-09T13:01:01.573Z,95622.41
2022-09-09T13:03:48.312Z,95625.63
2022-09-09T13:06:35.180Z,95618.63
2022-09-09T13:09:21.053Z,95621.09
2022-09-09T13:12:20.081Z,95621.13
2022-09-09T13:15:15.387Z,95622.94
2022-09-09T13:18:09.373Z,95623.09
2022-09-09T13:20:57.202Z,95622.88
2022-09-09T13:23:43.293Z,95621.91
2022-09-09T13:26:29.794Z,95610.19
2022-09-09T13:29:20.031Z,95616.44
2022-09-09T13:32:08.975Z,95615.53
2022-09-09T13:34:59.740Z,95607.63
2022-09-09T13:37:45.611Z,95608.34
2022-09-09T13:40:31.982Z,95598.50
2022-09-09T13:43:22.896Z,95606.03
2022-09-09T13:46:25.530Z,95602.06
2022-09-09T13:49:11.524Z,95611.50
2022-09-09T13:52:14.779Z,95594.19
2022-09-09T13:55:00.879Z,95595.53
2022-09-09T13:57:58.152Z,95590.84
2022-09-09T14:00:45.805Z,95578.00
2022-09-09T14:03:31.544Z,95578.00
2022-09-09T14:06:18.708Z,95579.59
2022-09-09T14:09:05.128Z,95569.41
2022-09-09T14:11:51.045Z,95571.63
2022-09-09T14:14:37.180Z,95580.41
2022-09-09T14:17:23.899Z,95572.34
2022-09-09T14:20:13.127Z,95574.69
2022-09-09T14:23:03.349Z,95569.50
2022-09-09T14:25:50.251Z,95572.97
2022-09-09T14:28:54.408Z,95570.59
2022-09-09T14:31:41.049Z,95575.28
2022-09-09T14:34:26.831Z,95563.16
2022-09-09T14:37:12.477Z,95541.63
2022-09-09T14:39:58.883Z,95540.06
2022-09-09T14:42:45.598Z,95542.38
2022-09-09T14:45:31.657Z,95558.81
2022-09-09T14:48:17.922Z,95565.09
2022-09-09T14:51:14.841Z,95549.44
2022-09-09T14:54:01.050Z,95538.53
2022-09-09T14:56:48.263Z,95541.72
2022-09-09T14:59:35.417Z,95547.25
2022-09-09T15:02:21.481Z,95560.28
2022-09-09T15:05:07.729Z,95553.75
2022-09-09T15:07:53.419Z,95559.72
2022-09-09T15:10:40.157Z,95554.66
2022-09-09T15:13:26.627Z,95553.84
2022-09-09T15:16:18.119Z,95532.63
2022-09-09T15:19:04.526Z,95523.97
2022-09-09T15:21:50.518Z,95515.34
2022-09-09T15:24:36.598Z,95529.44
2022-09-09T15:27:24.066Z,95540.28
2022-09-09T15:30:10.842Z,95537.13
2022-09-09T15:32:56.635Z,95524.47
2022-09-09T15:35:42.301Z,95542.50
2022-09-09T15:38:28.241Z,95536.94
2022-09-09T15:41:15.013Z,95540.06
2022-09-09T15:44:01.557Z,95538.06
2022-09-09T15:46:50.853Z,95551.78
2022-09-09T15:49:37.506Z,95553.28
2022-09-09T15:52:23.466Z,95538.72
2022-09-09T15:55:09.348Z,95528.84
2022-09-09T15:57:56.357Z,95513.84
2022-09-09T16:00:42.714Z,95523.19
2022-09-09T16:03:28.438Z,95512.88
2022-09-09T16:06:19.580Z,95508.09
2022-09-09T16:09:07.793Z,95499.47
2022-09-09T16:11:55.054Z,95512.75
2022-09-09T16:14:42.058Z,95530.78
2022-09-09T16:17:43.375Z,95506.50
2022-09-09T16:20:29.235Z,95499.59
2022-09-09T16:23:15.062Z,95500.75
2022-09-09T16:26:05.657Z,95516.91
2022-09-09T16:28:51.845Z,95520.06
2022-09-09T16:31:37.844Z,95510.66
2022-09-09T16:34:23.997Z,95518.19
2022-09-09T16:37:09.755Z,95515.88
2022-09-09T16:39:56.074Z,95509.22
2022-09-09T16:42:43.017Z,95513.56
2022-09-09T16:45:28.675Z,95518.66
2022-09-09T16:48:14.699Z,95519.44
2022-09-09T16:51:09.374Z,95518.59
2022-09-09T16:53:56.892Z,95521.78
2022-09-09T16:56:44.503Z,95519.75
2022-09-09T16:59:31.445Z,95526.88
2022-09-09T17:02:17.383Z,95517.88
2022-09-09T17:05:03.226Z,95517.88
2022-09-09T17:07:48.975Z,95522.94
2022-09-09T17:10:34.756Z,95525.25
2022-09-09T17:13:20.668Z,95527.13
2022-09-09T17:16:06.934Z,95526.28
2022-09-09T17:18:53.445Z,95529.75
2022-09-09T17:21:54.674Z,95533.22
2022-09-09T17:24:46.399Z,95544.06
2022-09-09T17:27:34.958Z,95540.00
2022-09-09T17:30:21.079Z,95546.63
2022-09-09T17:33:07.649Z,95543.84
2022-09-09T17:35:53.634Z,95542.19
2022-09-09T17:38:39.680Z,95548.38
2022-09-09T17:41:28.719Z,95542.84
2022-09-09T17:44:15.818Z,95538.88
2022-09-09T17:47:02.060Z,95534.91
2022-09-09T17:49:48.127Z,95538.78
2022-09-09T17:52:36.041Z,95541.88
2022-09-09T17:55:22.432Z,95554.00
2022-09-09T17:58:08.539Z,95548.09
2022-09-09T18:00:55.923Z,95548.09
2022-09-09T18:03:46.827Z,95546.50
2022-09-09T18:06:35.012Z,95537.41
2022-09-09T18:09:23.705Z,95544.13
2022-09-09T18:12:09.430Z,95541.38
2022-09-09T18:14:55.887Z,95536.25
2022-09-09T18:17:41.906Z,95539.78
2022-09-09T18:20:27.797Z,95542.44
2022-09-09T18:23:13.945Z,95547.09
2022-09-09T18:26:00.131Z,95547.88
2022-09-09T18:28:49.949Z,95542.75
2022-09-09T18:31:37.999Z,95545.50
2022-09-09T18:34:25.922Z,95541.16
2022-09-09T18:37:12.338Z,95534.53
2022-09-09T18:39:59.934Z,95533.75
2022-09-09T18:42:47.249Z,95538.88
2022-09-09T18:45:37.997Z,95538.88
2022-09-09T18:48:23.891Z,95544.34
2022-09-09T18:51:10.794Z,95544.34
2022-09-09T18:54:09.414Z,95550.97
2022-09-09T18:56:56.080Z,95543.91
2022-09-09T18:59:42.114Z,95549.81
2022-09-09T19:02:27.931Z,95540.00
2022-09-09T19:05:13.622Z,95538.78
2022-09-09T19:07:59.519Z,95538.44
2022-09-09T19:10:45.309Z,95540.28
2022-09-09T19:13:32.527Z,95535.97
2022-09-09T19:16:18.640Z,95532.81
2022-09-09T19:19:06.662Z,95532.03
2022-09-09T19:21:57.717Z,95541.38
2022-09-09T19:24:45.276Z,95525.75
2022-09-09T19:27:31.138Z,95533.97
2022-09-09T19:30:16.913Z,95526.53
2022-09-09T19:33:04.373Z,95526.91
2022-09-09T19:36:02.179Z,95513.91
2022-09-09T19:38:48.628Z,95513.91
2022-09-09T19:41:34.763Z,95516.22
2022-09-09T19:44:20.492Z,95513.03
2022-09-09T19:47:07.485Z,95510.31
2022-09-09T19:49:53.310Z,95516.16
2022-09-09T19:52:39.434Z,95514.56
2022-09-09T19:55:28.693Z,95516.09
2022-09-09T19:58:15.025Z,95521.47
2022-09-09T20:01:11.538Z,95517.50
2022-09-09T20:03:59.802Z,95514.34
2022-09-09T20:06:46.249Z,95516.78
2022-09-09T20:09:32.403Z,95512.91
2022-09-09T20:12:18.214Z,95506.63
2022-09-09T20:15:04.098Z,95515.66
2022-09-09T20:17:50.432Z,95505.84
2022-09-09T20:20:41.314Z,95509.72
2022-09-09T20:23:28.507Z,95513.63
2022-09-09T20:26:17.609Z,95506.56
2022-09-09T20:29:11.261Z,95508.88
2022-09-09T20:32:01.418Z,95517.44
2022-09-09T20:34:48.490Z,95519.75
2022-09-09T20:37:34.770Z,95519.66
2022-09-09T20:40:20.498Z,95517.28
2022-09-09T20:43:06.646Z,95511.00
2022-09-09T20:45:54.154Z,95519.50
2022-09-09T20:48:40.659Z,95532.75
2022-09-09T20:51:27.927Z,95535.06
2022-09-09T20:54:16.775Z,95541.25
2022-09-09T20:57:03.083Z,95543.56
2022-09-09T20:59:51.376Z,95533.31
2022-09-09T21:02:38.529Z,95534.03
2022-09-09T21:05:25.811Z,95543.03
2022-09-09T21:08:11.439Z,95537.91
2022-09-09T21:10:57.697Z,95531.59
2022-09-09T21:13:44.310Z,95543.38
2022-09-09T21:16:31.490Z,95539.50
2022-09-09T21:19:17.833Z,95544.19
2022-09-09T21:22:04.171Z,95544.19
2022-09-09T21:24:54.412Z,95545.31
2022-09-09T21:27:42.912Z,95544.19
2022-09-09T21:30:38.193Z,95549.03
2022-09-09T21:33:30.682Z,95548.25
2022-09-09T21:36:16.831Z,95544.00
2022-09-09T21:39:02.709Z,95539.31
2022-09-09T21:41:48.572Z,95530.31
2022-09-09T21:44:34.476Z,95537.78
2022-09-09T21:47:20.413Z,95540.88
2022-09-09T21:50:06.571Z,95542.41
2022-09-09T21:52:52.457Z,95537.28
2022-09-09T21:55:41.546Z,95531.03
2022-09-09T21:58:27.509Z,95533.31
2022-09-09T22:01:18.294Z,95525.09
2022-09-09T22:04:04.341Z,95529.34
2022-09-09T22:06:50.638Z,95531.72
2022-09-09T22:09:36.667Z,95534.03
2022-09-09T22:12:22.483Z,95534.38
2022-09-09T22:15:09.035Z,95509.59
2022-09-09T22:17:55.503Z,95501.47
2022-09-09T22:20:44.691Z,95506.94
2022-09-09T22:23:31.620Z,95495.56
2022-09-09T22:26:17.609Z,95497.59
2022-09-09T22:29:05.390Z,95502.63
2022-09-09T22:31:53.262Z,95503.41
2022-09-09T22:34:39.326Z,95494.78
2022-09-09T22:37:25.417Z,95495.81
2022-09-09T22:40:12.246Z,95501.28
2022-09-09T22:42:59.349Z,95486.75
2022-09-09T22:45:45.973Z,95478.53
2022-09-09T22:48:33.020Z,95461.59
2022-09-09T22:51:18.861Z,95456.66
2022-09-09T22:54:05.781Z,95454.63
2022-09-09T22:56:51.715Z,95458.94
2022-09-09T22:59:39.178Z,95454.63
2022-09-09T23:02:26.602Z,95463.25
2022-09-09T23:05:12.738Z,95465.56
2022-09-09T23:07:58.781Z,95467.16
2022-09-09T23:10:45.327Z,95458.84
2022-09-09T23:13:31.102Z,95465.81
2022-09-09T23:16:22.945Z,95467.69
2022-09-09T23:19:16.012Z,95456.66
2022-09-09T23:22:01.862Z,95445.63
2022-09-09T23:24:49.229Z,95454.28
2022-09-09T23:27:35.881Z,95445.63
2022-09-09T23:30:21.703Z,95442.91
2022-09-09T23:33:07.743Z,95464.09
2022-09-09T23:36:08.358Z,95470.69
2022-09-09T23:38:56.125Z,95473.88
2022-09-09T23:41:42.161Z,95470.00
2022-09-09T23:44:28.017Z,95468.41
2022-09-09T23:47:13.959Z,95471.59
2022-09-09T23:49:59.856Z,95474.75
2022-09-09T23:52:46.327Z,95463.81
2022-09-09T23:55:33.564Z,95460.72
2022-09-09T23:58:21.061Z,95456.84
